createdAt,value
2023-02-19T00:01:41.896Z,31.80
2023-02-19T00:04:10.895Z,30.95
2023-02-19T00:06:38.217Z,32.60
2023-02-19T00:09:06.043Z,34.28
2023-02-19T00:11:35.298Z,34.92
2023-02-19T00:14:03.597Z,31.35
2023-02-19T00:16:32.190Z,31.55
2023-02-19T00:19:00.417Z,32.97
2023-02-19T00:21:28.244Z,34.00
2023-02-19T00:23:56.934Z,31.45
2023-02-19T00:26:24.530Z,35.78
2023-02-19T00:31:22.064Z,31.00
2023-02-19T00:33:50.108Z,34.50
2023-02-19T00:36:17.837Z,33.40
2023-02-19T00:38:45.569Z,31.08
2023-02-19T00:41:22.625Z,28.42
2023-02-19T00:43:50.972Z,35.47
2023-02-19T00:46:19.010Z,31.40
2023-02-19T00:48:48.440Z,31.80
2023-02-19T00:51:16.247Z,32.15
2023-02-19T00:53:47.639Z,30.15
2023-02-19T00:56:18.384Z,29.85
2023-02-19T00:58:45.755Z,29.10
2023-02-19T01:01:16.298Z,27.30
2023-02-19T01:03:47.482Z,24.33
2023-02-19T01:06:18.415Z,27.25
2023-02-19T01:08:49.560Z,27.15
2023-02-19T01:11:17.505Z,26.63
2023-02-19T01:13:45.295Z,24.65
2023-02-19T01:16:14.110Z,27.58
2023-02-19T01:18:42.843Z,25.88
2023-02-19T01:21:13.010Z,25.52
2023-02-19T01:23:49.627Z,29.40
2023-02-19T01:26:20.593Z,27.80
2023-02-19T01:28:48.594Z,30.70
2023-02-19T01:31:17.363Z,35.28
2023-02-19T01:33:47.717Z,35.72
2023-02-19T01:36:17.698Z,35.65
2023-02-19T01:38:46.740Z,37.60
2023-02-19T01:41:16.915Z,38.13
2023-02-19T01:44:01.038Z,42.10
2023-02-19T01:46:29.227Z,37.70
2023-02-19T01:48:58.969Z,38.75
2023-02-19T01:51:26.403Z,36.03
2023-02-19T01:53:59.355Z,39.38
2023-02-19T01:56:27.586Z,40.83
2023-02-19T01:58:59.045Z,41.42
2023-02-19T02:01:26.383Z,40.70
2023-02-19T02:03:54.838Z,37.88
2023-02-19T02:06:23.702Z,37.85
2023-02-19T02:09:09.876Z,36.15
2023-02-19T02:11:41.821Z,38.35
2023-02-19T02:14:09.190Z,37.88
2023-02-19T02:16:42.148Z,36.75
2023-02-19T02:19:20.490Z,34.78
2023-02-19T02:21:54.972Z,36.47
2023-02-19T02:24:37.978Z,26.35
2023-02-19T02:27:14.170Z,29.15
2023-02-19T02:30:02.285Z,29.27
2023-02-19T02:32:34.116Z,28.95
2023-02-19T02:39:46.259Z,28.58
2023-02-19T02:42:29.335Z,27.00
2023-02-19T02:45:39.952Z,25.92
2023-02-19T02:48:38.452Z,27.05
2023-02-19T02:54:25.567Z,26.33
2023-02-19T02:56:55.216Z,28.08
2023-02-19T02:59:31.499Z,28.85
2023-02-19T03:02:11.897Z,27.48
2023-02-19T03:05:03.087Z,28.25
2023-02-19T03:07:34.960Z,25.52
2023-02-19T03:10:03.897Z,27.55
2023-02-19T03:12:50.002Z,27.73
2023-02-19T03:15:35.656Z,29.40
2023-02-19T03:18:26.584Z,26.58
2023-02-19T03:20:56.009Z,26.55
2023-02-19T03:23:50.298Z,27.42
2023-02-19T03:26:18.166Z,26.95
2023-02-19T03:29:14.438Z,27.13
2023-02-19T03:31:44.489Z,28.27
2023-02-19T03:34:18.279Z,29.02
2023-02-19T03:36:48.284Z,27.48
2023-02-19T03:39:23.674Z,28.77
2023-02-19T03:41:54.951Z,29.23
2023-02-19T03:44:28.717Z,31.80
2023-02-19T03:47:03.598Z,31.45
2023-02-19T03:49:42.545Z,29.80
2023-02-19T03:52:16.426Z,24.15
2023-02-19T03:54:47.992Z,24.85
2023-02-19T03:57:18.600Z,21.95
2023-02-19T03:59:49.842Z,25.48
2023-02-19T04:02:20.242Z,25.13
2023-02-19T04:04:50.678Z,27.20
2023-02-19T04:07:18.592Z,22.92
2023-02-19T04:09:53.100Z,22.77
2023-02-19T04:12:22.077Z,19.73
2023-02-19T04:14:53.271Z,20.38
2023-02-19T04:17:21.942Z,19.92
2023-02-19T04:19:51.042Z,20.85
2023-02-19T04:22:18.555Z,21.50
2023-02-19T04:24:48.929Z,23.40
2023-02-19T04:27:16.537Z,21.65
2023-02-19T04:29:43.987Z,23.88
2023-02-19T04:32:11.707Z,22.65
2023-02-19T04:34:39.162Z,19.98
2023-02-19T04:37:06.835Z,20.88
2023-02-19T04:39:34.233Z,19.65
2023-02-19T04:42:03.013Z,19.60
2023-02-19T04:44:30.419Z,17.48
2023-02-19T04:46:57.781Z,19.60
2023-02-19T04:49:25.232Z,16.10
2023-02-19T04:51:52.602Z,18.10
2023-02-19T04:54:26.100Z,19.90
2023-02-19T04:56:55.846Z,18.02
2023-02-19T04:59:27.564Z,17.55
2023-02-19T05:02:02.942Z,18.45
2023-02-19T05:04:33.777Z,19.95
2023-02-19T05:07:01.748Z,19.48
2023-02-19T05:11:56.557Z,21.05
2023-02-19T05:14:25.430Z,20.35
2023-02-19T05:16:52.956Z,20.48
2023-02-19T05:19:20.633Z,21.23
2023-02-19T05:21:48.067Z,22.23
2023-02-19T05:24:19.685Z,20.55
2023-02-19T05:26:49.928Z,21.65
2023-02-19T05:29:17.320Z,20.85
2023-02-19T05:31:49.614Z,22.60
2023-02-19T05:34:17.243Z,21.55
2023-02-19T05:36:45.194Z,21.52
2023-02-19T05:41:44.570Z,19.73
2023-02-19T05:44:13.521Z,19.17
2023-02-19T05:46:41.027Z,18.23
2023-02-19T05:49:11.046Z,18.75
2023-02-19T05:51:38.560Z,18.23
2023-02-19T05:54:06.484Z,18.65
2023-02-19T05:56:38.373Z,19.13
2023-02-19T05:59:10.523Z,18.13
2023-02-19T06:01:48.942Z,18.10
2023-02-19T06:04:22.234Z,18.17
2023-02-19T06:06:54.984Z,19.13
2023-02-19T06:09:24.697Z,19.67
2023-02-19T06:11:52.268Z,21.58
2023-02-19T06:14:21.198Z,20.25
2023-02-19T06:16:55.736Z,21.10
2023-02-19T06:19:24.815Z,21.10
2023-02-19T06:21:53.602Z,18.48
2023-02-19T06:24:21.316Z,16.08
2023-02-19T06:26:49.240Z,16.35
2023-02-19T06:31:44.687Z,19.00
2023-02-19T06:34:12.341Z,20.40
2023-02-19T06:36:41.184Z,19.88
2023-02-19T06:39:08.709Z,20.75
2023-02-19T06:41:38.351Z,22.50
2023-02-19T06:44:08.010Z,22.13
2023-02-19T06:46:35.498Z,21.77
2023-02-19T06:49:04.774Z,21.58
2023-02-19T06:51:34.564Z,18.80
2023-02-19T06:54:05.304Z,19.13
2023-02-19T06:56:46.984Z,20.25
2023-02-19T06:59:17.746Z,21.23
2023-02-19T07:01:47.527Z,20.27
2023-02-19T07:04:18.810Z,17.60
2023-02-19T07:06:48.011Z,17.80
2023-02-19T07:09:16.863Z,18.83
2023-02-19T07:11:44.614Z,18.17
2023-02-19T07:14:19.844Z,19.38
2023-02-19T07:16:47.675Z,15.02
2023-02-19T07:19:17.210Z,17.45
2023-02-19T07:21:44.652Z,14.75
2023-02-19T07:24:14.089Z,16.38
2023-02-19T07:26:48.458Z,15.18
2023-02-19T07:29:25.191Z,17.88
2023-02-19T07:31:54.812Z,14.80
2023-02-19T07:34:22.613Z,13.85
2023-02-19T07:36:51.298Z,15.20
2023-02-19T07:39:21.834Z,14.32
2023-02-19T07:41:50.644Z,12.48
2023-02-19T07:44:26.953Z,15.40
2023-02-19T07:46:54.699Z,15.90
2023-02-19T07:49:24.937Z,13.38
2023-02-19T07:51:55.592Z,15.23
2023-02-19T07:54:24.318Z,14.63
2023-02-19T07:56:55.807Z,14.23
2023-02-19T07:59:26.010Z,14.73
2023-02-19T08:02:22.972Z,16.00
2023-02-19T08:04:53.411Z,14.40
2023-02-19T08:07:20.999Z,14.82
2023-02-19T08:10:14.817Z,16.20
2023-02-19T08:13:03.232Z,15.57
2023-02-19T08:15:33.761Z,14.60
2023-02-19T08:18:01.138Z,15.85
2023-02-19T08:20:28.530Z,16.17
2023-02-19T08:22:55.932Z,15.70
2023-02-19T08:25:25.759Z,14.13
2023-02-19T08:27:54.657Z,16.95
2023-02-19T08:30:26.430Z,17.80
2023-02-19T08:32:55.543Z,14.80
2023-02-19T08:35:29.147Z,15.30
2023-02-19T08:38:02.327Z,17.42
2023-02-19T08:40:31.079Z,12.77
2023-02-19T08:43:04.680Z,14.00
2023-02-19T08:45:32.278Z,11.82
2023-02-19T08:48:01.022Z,11.25
2023-02-19T08:50:31.165Z,11.32
2023-02-19T08:53:01.235Z,12.00
2023-02-19T08:55:28.930Z,13.40
2023-02-19T08:57:56.684Z,12.82
2023-02-19T09:00:27.709Z,13.18
2023-02-19T09:02:55.585Z,13.07
2023-02-19T09:05:25.878Z,12.68
2023-02-19T09:07:53.803Z,11.90
2023-02-19T09:12:56.424Z,11.30
2023-02-19T09:15:28.518Z,11.55
2023-02-19T09:17:56.548Z,11.82
2023-02-19T09:22:51.368Z,11.65
2023-02-19T09:25:27.684Z,11.52
2023-02-19T09:27:58.339Z,13.48
2023-02-19T09:30:29.184Z,13.05
2023-02-19T09:32:56.726Z,14.95
2023-02-19T09:35:26.754Z,15.45
2023-02-19T09:37:54.420Z,13.80
2023-02-19T09:40:22.587Z,14.73
2023-02-19T09:42:51.546Z,14.95
2023-02-19T09:45:23.653Z,14.55
2023-02-19T09:47:55.962Z,13.65
2023-02-19T09:50:26.162Z,14.38
2023-02-19T09:52:55.473Z,14.30
2023-02-19T09:55:30.152Z,12.70
2023-02-19T09:58:04.640Z,13.63
2023-02-19T10:00:33.948Z,11.43
2023-02-19T10:03:09.324Z,11.20
2023-02-19T10:05:37.219Z,10.80
2023-02-19T10:08:07.713Z,9.98
2023-02-19T10:10:35.958Z,10.95
2023-02-19T10:13:19.054Z,12.15
2023-02-19T10:15:52.885Z,11.02
2023-02-19T10:18:25.542Z,12.63
2023-02-19T10:20:56.731Z,12.07
2023-02-19T10:23:26.167Z,12.73
2023-02-19T10:25:58.184Z,11.80
2023-02-19T10:28:32.254Z,12.02
2023-02-19T10:31:01.103Z,12.73
2023-02-19T10:33:34.529Z,10.63
2023-02-19T10:36:06.562Z,10.95
2023-02-19T10:38:36.437Z,9.52
2023-02-19T10:41:08.009Z,9.20
2023-02-19T10:43:39.472Z,7.95
2023-02-19T10:46:17.855Z,8.90
2023-02-19T10:48:48.137Z,7.88
2023-02-19T10:51:26.423Z,7.25
2023-02-19T10:54:05.288Z,8.90
2023-02-19T10:56:33.691Z,8.65
2023-02-19T10:59:16.200Z,6.82
2023-02-19T11:01:55.873Z,7.30
2023-02-19T11:04:29.058Z,7.78
2023-02-19T11:06:57.459Z,7.55
2023-02-19T11:09:30.438Z,7.13
2023-02-19T11:11:59.317Z,7.93
2023-02-19T11:14:30.191Z,7.35
2023-02-19T11:17:00.755Z,7.93
2023-02-19T11:19:36.366Z,7.07
2023-02-19T11:22:19.214Z,3.65
2023-02-19T11:24:54.534Z,3.78
2023-02-19T11:27:25.910Z,3.08
2023-02-19T11:29:53.382Z,2.95
2023-02-19T11:32:30.475Z,3.10
2023-02-19T11:35:22.940Z,2.50
2023-02-19T11:37:57.829Z,2.50
2023-02-19T11:40:35.085Z,3.40
2023-02-19T11:43:06.868Z,2.55
2023-02-19T11:45:38.249Z,1.80
2023-02-19T11:48:20.807Z,2.17
2023-02-19T11:50:53.511Z,2.03
2023-02-19T11:53:25.937Z,1.73
2023-02-19T11:55:57.489Z,2.17
2023-02-19T11:58:38.246Z,2.00
2023-02-19T12:01:09.869Z,2.47
2023-02-19T12:03:55.522Z,2.15
2023-02-19T12:06:30.169Z,2.78
2023-02-19T12:09:07.585Z,2.63
2023-02-19T12:11:50.420Z,2.47
2023-02-19T12:14:38.646Z,2.40
2023-02-19T12:17:09.822Z,2.97
2023-02-19T12:19:54.745Z,3.15
2023-02-19T12:22:31.211Z,2.90
2023-02-19T12:25:16.607Z,3.40
2023-02-19T12:27:54.439Z,3.25
2023-02-19T12:33:18.321Z,2.83
2023-02-19T12:36:00.491Z,3.42
2023-02-19T12:38:38.180Z,3.72
2023-02-19T12:41:19.294Z,4.00
2023-02-19T12:43:53.902Z,3.17
2023-02-19T12:46:27.967Z,3.58
2023-02-19T12:49:00.045Z,3.78
2023-02-19T12:51:28.794Z,3.13
2023-02-19T12:53:59.748Z,2.50
2023-02-19T12:56:36.926Z,2.60
2023-02-19T12:59:08.570Z,2.65
2023-02-19T13:01:41.607Z,2.38
2023-02-19T13:04:15.654Z,3.42
2023-02-19T13:06:57.417Z,2.28
2023-02-19T13:09:34.437Z,3.42
2023-02-19T13:12:08.485Z,2.63
2023-02-19T13:14:38.735Z,2.50
2023-02-19T13:17:14.294Z,2.60
2023-02-19T13:19:42.197Z,2.45
2023-02-19T13:24:56.440Z,3.35
2023-02-19T13:27:35.916Z,3.20
2023-02-19T13:30:09.899Z,2.88
2023-02-19T13:32:49.150Z,2.67
2023-02-19T13:35:23.931Z,2.58
2023-02-19T13:37:52.012Z,3.33
2023-02-19T13:40:31.884Z,3.30
2023-02-19T13:43:00.477Z,3.97
2023-02-19T13:45:32.229Z,3.22
2023-02-19T13:48:01.025Z,3.53
2023-02-19T13:50:30.094Z,3.78
2023-02-19T13:52:57.722Z,3.42
2023-02-19T13:55:46.627Z,3.42
2023-02-19T13:58:33.110Z,3.70
2023-02-19T14:01:08.572Z,4.00
2023-02-19T14:03:56.857Z,3.72
2023-02-19T14:06:24.238Z,3.28
2023-02-19T14:08:56.957Z,3.65
2023-02-19T14:11:42.981Z,3.90
2023-02-19T14:14:26.455Z,4.50
2023-02-19T14:17:01.060Z,4.93
2023-02-19T14:19:58.845Z,4.63
2023-02-19T14:22:45.197Z,4.75
2023-02-19T14:25:23.672Z,5.18
2023-02-19T14:27:53.421Z,6.03
2023-02-19T14:30:22.204Z,5.53
2023-02-19T14:33:02.784Z,6.00
2023-02-19T14:35:38.968Z,5.45
2023-02-19T14:38:07.060Z,6.15
2023-02-19T14:40:37.928Z,5.97
2023-02-19T14:43:06.351Z,6.43
2023-02-19T14:45:38.328Z,7.10
2023-02-19T14:48:08.169Z,7.18
2023-02-19T14:50:36.076Z,7.18
2023-02-19T14:53:05.547Z,7.53
2023-02-19T14:55:39.883Z,8.32
2023-02-19T14:58:08.582Z,7.32
2023-02-19T15:00:37.158Z,7.80
2023-02-19T15:03:05.642Z,8.45
2023-02-19T15:05:36.497Z,8.88
2023-02-19T15:08:12.198Z,9.30
2023-02-19T15:10:40.084Z,9.68
2023-02-19T15:13:11.964Z,9.90
2023-02-19T15:15:41.152Z,10.55
2023-02-19T15:18:19.356Z,9.02
2023-02-19T15:20:48.615Z,6.90
2023-02-19T15:23:20.169Z,7.32
2023-02-19T15:25:49.237Z,7.18
2023-02-19T15:28:20.641Z,6.75
2023-02-19T15:30:50.537Z,6.70
2023-02-19T15:33:19.426Z,6.25
2023-02-19T15:35:51.026Z,7.38
2023-02-19T15:38:19.097Z,7.43
2023-02-19T15:40:47.331Z,7.68
2023-02-19T15:43:21.494Z,8.00
2023-02-19T15:45:49.036Z,8.63
2023-02-19T15:48:18.238Z,8.82
2023-02-19T15:50:57.134Z,8.52
2023-02-19T15:53:25.604Z,11.82
2023-02-19T15:55:59.185Z,9.88
2023-02-19T15:58:31.690Z,9.57
2023-02-19T16:01:01.348Z,8.82
2023-02-19T16:03:29.763Z,9.95
2023-02-19T16:06:03.711Z,10.30
2023-02-19T16:08:32.434Z,10.25
2023-02-19T16:11:05.585Z,10.80
2023-02-19T16:13:35.284Z,10.60
2023-02-19T16:16:07.276Z,11.25
2023-02-19T16:18:39.597Z,12.70
2023-02-19T16:21:09.642Z,12.27
2023-02-19T16:23:42.228Z,11.30
2023-02-19T16:26:09.867Z,12.35
2023-02-19T16:28:38.516Z,12.25
2023-02-19T16:31:07.478Z,11.70
2023-02-19T16:33:37.942Z,10.18
2023-02-19T16:36:32.482Z,9.52
2023-02-19T16:39:04.582Z,9.43
2023-02-19T16:41:38.617Z,9.05
2023-02-19T16:44:30.904Z,8.13
2023-02-19T16:46:59.584Z,7.45
2023-02-19T16:49:27.366Z,8.13
2023-02-19T16:51:55.093Z,7.90
2023-02-19T16:54:25.601Z,9.73
2023-02-19T16:56:53.245Z,7.53
2023-02-19T16:59:20.989Z,7.50
2023-02-19T17:01:48.606Z,7.97
2023-02-19T17:04:16.924Z,7.57
2023-02-19T17:06:45.547Z,7.43
2023-02-19T17:09:16.192Z,6.18
2023-02-19T17:11:45.073Z,6.22
2023-02-19T17:14:12.967Z,5.10
2023-02-19T17:19:13.962Z,5.18
2023-02-19T17:21:41.352Z,5.07
2023-02-19T17:24:09.063Z,5.00
2023-02-19T17:26:38.073Z,4.45
2023-02-19T17:29:08.528Z,5.55
2023-02-19T17:31:36.098Z,5.10
2023-02-19T17:34:03.748Z,4.45
2023-02-19T17:36:32.524Z,5.88
2023-02-19T17:39:02.790Z,5.75
2023-02-19T17:41:31.826Z,5.10
2023-02-19T17:44:01.447Z,5.63
2023-02-19T17:46:30.888Z,5.85
2023-02-19T17:48:58.476Z,6.88
2023-02-19T17:51:26.130Z,6.68
2023-02-19T17:53:53.922Z,7.03
2023-02-19T17:58:49.054Z,7.45
2023-02-19T18:01:16.876Z,8.02
2023-02-19T18:03:48.437Z,7.57
2023-02-19T18:06:16.064Z,8.55
2023-02-19T18:08:47.659Z,9.40
2023-02-19T18:11:18.326Z,9.40
2023-02-19T18:13:46.428Z,10.25
2023-02-19T18:16:15.726Z,9.77
2023-02-19T18:18:43.434Z,10.48
2023-02-19T18:21:14.070Z,10.45
2023-02-19T18:23:41.941Z,10.73
2023-02-19T18:26:11.472Z,9.70
2023-02-19T18:28:42.004Z,10.35
2023-02-19T18:31:09.830Z,11.90
2023-02-19T18:33:40.805Z,13.10
2023-02-19T18:36:12.846Z,12.73
2023-02-19T18:38:42.440Z,7.60
2023-02-19T18:41:12.050Z,5.20
2023-02-19T18:43:41.071Z,5.97
2023-02-19T18:46:09.027Z,7.32
2023-02-19T18:48:36.474Z,7.65
2023-02-19T18:51:04.002Z,9.55
2023-02-19T18:53:32.728Z,9.15
2023-02-19T18:56:01.864Z,9.73
2023-02-19T18:58:29.318Z,10.10
2023-02-19T19:00:57.481Z,10.07
2023-02-19T19:03:24.875Z,9.45
2023-02-19T19:05:52.244Z,8.30
2023-02-19T19:08:19.643Z,7.20
2023-02-19T19:10:48.622Z,7.22
2023-02-19T19:13:16.024Z,7.00
2023-02-19T19:15:45.018Z,5.90
2023-02-19T19:18:12.431Z,6.07
2023-02-19T19:20:39.822Z,5.35
2023-02-19T19:23:07.735Z,5.57
2023-02-19T19:25:36.263Z,6.07
2023-02-19T19:28:05.455Z,5.88
2023-02-19T19:30:35.551Z,6.97
2023-02-19T19:33:03.611Z,6.10
2023-02-19T19:35:32.408Z,6.45
2023-02-19T19:38:00.042Z,6.07
2023-02-19T19:40:31.942Z,6.10
2023-02-19T19:42:59.458Z,7.78
2023-02-19T19:45:28.357Z,6.72
2023-02-19T19:47:55.817Z,6.03
2023-02-19T19:50:23.209Z,6.75
2023-02-19T19:52:50.773Z,6.78
2023-02-19T19:55:18.378Z,6.35
2023-02-19T19:57:46.340Z,5.93
2023-02-19T20:02:42.514Z,5.95
2023-02-19T20:05:12.827Z,6.90
2023-02-19T20:07:40.470Z,7.20
2023-02-19T20:10:08.585Z,7.40
2023-02-19T20:12:36.139Z,8.00
2023-02-19T20:15:09.298Z,8.95
2023-02-19T20:17:36.729Z,10.15
2023-02-19T20:20:06.740Z,10.93
2023-02-19T20:22:36.379Z,11.07
2023-02-19T20:25:04.045Z,11.48
2023-02-19T20:27:31.396Z,11.48
2023-02-19T20:29:58.775Z,12.27
2023-02-19T20:32:30.655Z,12.27
2023-02-19T20:34:58.125Z,11.00
2023-02-19T20:37:26.907Z,10.52
2023-02-19T20:39:54.330Z,12.30
2023-02-19T20:42:21.938Z,10.18
2023-02-19T20:44:49.320Z,12.02
2023-02-19T20:47:16.961Z,11.60
2023-02-19T20:49:47.191Z,12.13
2023-02-19T20:52:16.277Z,11.55
2023-02-19T20:54:45.554Z,11.57
2023-02-19T20:57:13.757Z,12.60
2023-02-19T20:59:41.302Z,12.10
2023-02-19T21:02:11.710Z,11.32
2023-02-19T21:04:39.321Z,11.45
2023-02-19T21:07:06.904Z,12.18
2023-02-19T21:09:37.030Z,12.13
2023-02-19T21:12:06.687Z,11.93
2023-02-19T21:14:34.410Z,12.23
2023-02-19T21:17:01.909Z,11.57
2023-02-19T21:21:57.223Z,11.68
2023-02-19T21:24:24.874Z,12.70
2023-02-19T21:26:56.351Z,12.23
2023-02-19T21:29:25.900Z,12.65
2023-02-19T21:31:54.817Z,11.55
2023-02-19T21:34:26.542Z,12.70
2023-02-19T21:36:57.251Z,12.32
2023-02-19T21:39:25.938Z,12.98
2023-02-19T21:42:00.093Z,12.63
2023-02-19T21:44:33.710Z,13.10
2023-02-19T21:47:03.476Z,13.05
2023-02-19T21:49:34.138Z,12.40
2023-02-19T21:52:03.648Z,10.35
2023-02-19T21:54:31.214Z,11.43
2023-02-19T21:57:01.903Z,10.98
2023-02-19T21:59:31.918Z,12.43
2023-02-19T22:01:59.429Z,12.07
2023-02-19T22:04:27.431Z,12.75
2023-02-19T22:06:55.807Z,11.85
2023-02-19T22:09:25.910Z,10.73
2023-02-19T22:11:53.652Z,11.00
2023-02-19T22:14:21.198Z,12.73
2023-02-19T22:16:52.706Z,11.90
2023-02-19T22:19:20.256Z,12.20
2023-02-19T22:21:47.697Z,13.80
2023-02-19T22:24:16.318Z,14.02
2023-02-19T22:26:44.789Z,14.15
2023-02-19T22:29:13.363Z,15.02
2023-02-19T22:31:40.802Z,17.33
2023-02-19T22:34:10.019Z,16.02
2023-02-19T22:36:38.114Z,17.20
2023-02-19T22:39:06.428Z,17.45
2023-02-19T22:41:33.853Z,18.75
2023-02-19T22:44:01.646Z,18.60
2023-02-19T22:46:29.673Z,19.67
2023-02-19T22:48:58.658Z,19.70
2023-02-19T22:51:27.628Z,21.02
2023-02-19T22:53:55.964Z,20.40
2023-02-19T22:56:28.599Z,18.02
2023-02-19T22:58:56.732Z,14.73
2023-02-19T23:01:24.576Z,14.60
2023-02-19T23:06:26.779Z,10.68
2023-02-19T23:08:56.498Z,12.63
2023-02-19T23:11:24.932Z,9.73
2023-02-19T23:13:52.580Z,12.10
2023-02-19T23:16:20.254Z,11.35
2023-02-19T23:18:48.762Z,10.48
2023-02-19T23:21:16.404Z,10.40
2023-02-19T23:23:44.346Z,8.88
2023-02-19T23:28:41.454Z,8.00
2023-02-19T23:31:10.723Z,7.97
2023-02-19T23:33:38.466Z,8.68
2023-02-19T23:36:06.417Z,8.45
2023-02-19T23:41:03.679Z,8.27
2023-02-19T23:43:31.259Z,7.95
2023-02-19T23:46:01.770Z,8.55
2023-02-19T23:48:29.358Z,7.15
2023-02-19T23:50:56.780Z,5.82
2023-02-19T23:53:24.255Z,6.55
2023-02-19T23:55:54.930Z,6.25
2023-02-19T23:58:22.386Z,6.22
